createdAt,value
2018-06-20T00:01:28.162Z,15.70
2018-06-20T00:04:32.617Z,15.72
2018-06-20T00:07:37.972Z,15.69
2018-06-20T00:10:42.273Z,15.61
2018-06-20T00:13:46.658Z,15.54
2018-06-20T00:16:50.974Z,15.52
2018-06-20T00:19:55.322Z,15.44
2018-06-20T00:22:59.649Z,15.44
2018-06-20T00:26:04.389Z,15.42
2018-06-20T00:29:08.701Z,15.36
2018-06-20T00:32:13.231Z,15.32
2018-06-20T00:35:18.060Z,15.28
2018-06-20T00:38:22.490Z,15.24
2018-06-20T00:41:26.837Z,15.23
2018-06-20T00:44:31.238Z,15.21
2018-06-20T00:47:35.685Z,15.23
2018-06-20T00:50:40.009Z,15.16
2018-06-20T00:53:44.345Z,15.17
2018-06-20T00:56:48.640Z,15.13
2018-06-20T00:59:52.965Z,15.11
2018-06-20T01:02:57.325Z,15.07
2018-06-20T01:06:01.890Z,15.03
2018-06-20T01:09:10.416Z,15.04
2018-06-20T01:12:14.924Z,14.98
2018-06-20T01:15:19.876Z,14.95
2018-06-20T01:18:24.250Z,14.91
2018-06-20T01:21:28.633Z,14.91
2018-06-20T01:24:32.962Z,14.89
2018-06-20T01:27:37.437Z,14.83
2018-06-20T01:30:41.753Z,14.82
2018-06-20T01:33:46.223Z,14.78
2018-06-20T01:36:50.925Z,14.77
2018-06-20T01:39:55.238Z,14.73
2018-06-20T01:42:59.553Z,14.75
2018-06-20T01:46:04.336Z,14.68
2018-06-20T01:49:08.682Z,14.70
2018-06-20T01:52:13.404Z,14.65
2018-06-20T01:55:17.725Z,14.63
2018-06-20T01:58:22.743Z,14.63
2018-06-20T02:01:27.054Z,14.60
2018-06-20T02:04:31.373Z,14.55
2018-06-20T02:07:35.666Z,14.58
2018-06-20T02:10:40.002Z,14.57
2018-06-20T02:13:44.285Z,14.54
2018-06-20T02:16:48.592Z,14.52
2018-06-20T02:19:52.884Z,14.47
2018-06-20T02:22:57.348Z,14.45
2018-06-20T02:26:01.648Z,14.44
2018-06-20T02:29:06.037Z,14.40
2018-06-20T02:32:10.164Z,14.32
2018-06-20T02:35:14.227Z,14.32
2018-06-20T02:38:18.515Z,14.29
2018-06-20T02:41:22.809Z,14.25
2018-06-20T02:44:27.145Z,14.21
2018-06-20T02:47:36.629Z,14.20
2018-06-20T02:50:40.939Z,14.17
2018-06-20T02:53:45.308Z,14.16
2018-06-20T02:56:49.606Z,14.12
2018-06-20T02:59:54.079Z,14.10
2018-06-20T03:02:58.454Z,14.06
2018-06-20T03:06:03.022Z,14.06
2018-06-20T03:09:14.720Z,14.07
2018-06-20T03:12:19.009Z,14.05
2018-06-20T03:15:23.744Z,14.09
2018-06-20T03:18:28.103Z,14.10
2018-06-20T03:21:32.220Z,14.04
2018-06-20T03:24:36.532Z,14.05
2018-06-20T03:27:40.848Z,14.04
2018-06-20T03:30:45.929Z,14.09
2018-06-20T03:33:50.239Z,14.04
2018-06-20T03:36:55.058Z,14.09
2018-06-20T03:40:01.462Z,14.11
2018-06-20T03:43:05.936Z,14.12
2018-06-20T03:46:10.440Z,14.10
2018-06-20T03:49:15.179Z,14.11
2018-06-20T03:52:19.736Z,14.18
2018-06-20T03:55:24.335Z,14.33
2018-06-20T03:58:28.675Z,14.31
2018-06-20T04:01:33.085Z,14.27
2018-06-20T04:04:37.452Z,14.25
2018-06-20T04:07:42.698Z,14.44
2018-06-20T04:10:47.005Z,14.52
2018-06-20T04:13:52.174Z,14.60
2018-06-20T04:16:56.605Z,14.76
2018-06-20T04:20:01.105Z,14.82
2018-06-20T04:23:05.574Z,14.94
2018-06-20T04:26:32.115Z,15.08
2018-06-20T04:29:36.461Z,15.27
2018-06-20T04:32:41.365Z,15.31
2018-06-20T04:35:45.855Z,15.37
2018-06-20T04:38:50.294Z,15.53
2018-06-20T04:41:55.566Z,15.66
2018-06-20T04:44:59.858Z,15.75
2018-06-20T04:48:04.297Z,15.89
2018-06-20T04:51:34.561Z,16.00
2018-06-20T04:54:39.576Z,16.21
2018-06-20T04:57:43.957Z,16.31
2018-06-20T05:00:48.806Z,16.44
2018-06-20T05:03:53.169Z,16.53
2018-06-20T05:06:57.512Z,16.61
2018-06-20T05:10:01.896Z,16.69
2018-06-20T05:13:06.513Z,16.85
2018-06-20T05:16:10.797Z,16.95
2018-06-20T05:19:15.306Z,17.04
2018-06-20T05:22:19.734Z,17.16
2018-06-20T05:25:24.013Z,17.24
2018-06-20T05:28:28.381Z,17.25
2018-06-20T05:31:32.982Z,17.44
2018-06-20T05:34:37.383Z,17.56
2018-06-20T05:37:41.726Z,17.67
2018-06-20T05:40:47.089Z,17.64
2018-06-20T05:43:51.510Z,17.75
2018-06-20T05:46:56.930Z,17.86
2018-06-20T05:50:01.446Z,17.96
2018-06-20T05:53:07.457Z,18.11
2018-06-20T05:56:12.349Z,18.29
2018-06-20T05:59:16.674Z,18.55
2018-06-20T06:02:21.206Z,19.35
2018-06-20T06:05:25.686Z,20.24
2018-06-20T06:08:29.997Z,21.39
2018-06-20T06:11:34.545Z,22.16
2018-06-20T06:14:38.904Z,22.55
2018-06-20T06:17:44.127Z,23.92
2018-06-20T06:20:48.493Z,24.19
2018-06-20T06:23:52.990Z,24.87
2018-06-20T06:26:57.873Z,25.95
2018-06-20T06:30:02.251Z,25.58
2018-06-20T06:33:07.395Z,25.88
2018-06-20T06:36:11.720Z,25.32
2018-06-20T06:39:16.523Z,24.93
2018-06-20T06:42:20.792Z,24.94
2018-06-20T06:45:25.313Z,25.81
2018-06-20T06:48:29.792Z,26.42
2018-06-20T06:51:34.126Z,26.53
2018-06-20T06:54:38.590Z,27.50
2018-06-20T06:57:44.026Z,27.50
2018-06-20T07:00:48.445Z,26.95
2018-06-20T07:03:52.776Z,26.40
2018-06-20T07:06:57.620Z,25.96
2018-06-20T07:10:01.923Z,26.54
2018-06-20T07:13:06.593Z,26.71
2018-06-20T07:16:11.529Z,25.95
2018-06-20T07:19:15.857Z,26.75
2018-06-20T07:22:20.144Z,26.00
2018-06-20T07:25:24.574Z,26.32
2018-06-20T07:28:29.102Z,26.48
2018-06-20T07:31:33.385Z,25.97
2018-06-20T07:34:37.730Z,25.70
2018-06-20T07:37:42.086Z,25.29
2018-06-20T07:40:46.975Z,25.70
2018-06-20T07:43:51.828Z,26.12
2018-06-20T07:46:56.122Z,26.00
2018-06-20T07:50:00.999Z,26.19
2018-06-20T07:53:06.515Z,25.68
2018-06-20T07:56:10.873Z,24.84
2018-06-20T07:59:16.125Z,23.99
2018-06-20T08:02:42.880Z,24.50
2018-06-20T08:05:52.728Z,25.11
2018-06-20T08:09:02.733Z,24.11
2018-06-20T08:12:12.206Z,24.41
2018-06-20T08:15:21.667Z,25.40
2018-06-20T08:18:31.213Z,25.72
2018-06-20T08:21:35.731Z,26.13
2018-06-20T08:24:55.773Z,24.92
2018-06-20T08:28:00.185Z,23.86
2018-06-20T08:31:04.276Z,23.95
2018-06-20T08:34:09.206Z,23.77
2018-06-20T08:37:13.563Z,23.93
2018-06-20T08:40:17.937Z,24.44
2018-06-20T08:43:22.071Z,24.14
2018-06-20T08:46:26.781Z,24.64
2018-06-20T08:49:31.297Z,24.98
2018-06-20T08:52:35.580Z,25.01
2018-06-20T08:55:39.904Z,25.50
2018-06-20T08:58:44.319Z,25.58
2018-06-20T09:01:48.634Z,25.22
2018-06-20T09:04:58.234Z,25.05
2018-06-20T09:09:06.377Z,24.52
2018-06-20T09:12:15.908Z,24.38
2018-06-20T09:16:25.220Z,24.30
2018-06-20T09:19:34.779Z,24.92
2018-06-20T09:22:39.818Z,25.11
2018-06-20T09:25:44.415Z,24.98
2018-06-20T09:28:48.759Z,24.65
2018-06-20T09:31:53.423Z,24.23
2018-06-20T09:34:57.748Z,24.56
2018-06-20T09:38:02.135Z,24.49
2018-06-20T09:41:06.865Z,25.23
2018-06-20T09:44:11.281Z,25.58
2018-06-20T09:47:17.226Z,25.29
2018-06-20T09:50:27.108Z,25.28
2018-06-20T09:53:31.710Z,25.69
2018-06-20T09:56:36.038Z,25.93
2018-06-20T09:59:45.886Z,25.15
2018-06-20T10:02:55.337Z,25.18
2018-06-20T10:09:19.497Z,25.03
2018-06-20T10:12:30.330Z,25.03
2018-06-20T10:15:35.264Z,25.08
2018-06-20T10:18:40.272Z,25.36
2018-06-20T10:21:44.561Z,25.67
2018-06-20T10:24:48.923Z,25.49
2018-06-20T10:27:53.229Z,25.32
2018-06-20T10:30:57.506Z,25.55
2018-06-20T10:34:01.809Z,25.88
2018-06-20T10:37:06.728Z,25.68
2018-06-20T10:40:11.085Z,25.65
2018-06-20T10:43:16.620Z,25.24
2018-06-20T10:46:26.727Z,25.61
2018-06-20T10:49:30.919Z,25.85
2018-06-20T10:52:35.264Z,25.78
2018-06-20T10:55:40.337Z,25.31
2018-06-20T10:58:49.778Z,25.36
2018-06-20T11:01:59.474Z,25.60
2018-06-20T11:05:09.957Z,25.41
2018-06-20T11:08:19.345Z,25.52
2018-06-20T11:12:29.713Z,25.64
2018-06-20T11:15:34.896Z,25.35
2018-06-20T11:18:42.088Z,25.74
2018-06-20T11:21:48.257Z,25.89
2018-06-20T11:24:52.584Z,25.60
2018-06-20T11:27:56.948Z,25.75
2018-06-20T11:31:01.408Z,25.66
2018-06-20T11:34:05.701Z,25.65
2018-06-20T11:37:10.758Z,25.78
2018-06-20T11:40:15.052Z,25.99
2018-06-20T11:43:21.439Z,26.12
2018-06-20T11:46:30.990Z,26.25
2018-06-20T11:49:35.356Z,26.36
2018-06-20T11:52:44.931Z,26.05
2018-06-20T11:55:50.405Z,26.31
2018-06-20T11:58:59.847Z,26.38
2018-06-20T12:02:09.514Z,26.30
2018-06-20T12:05:20.110Z,25.83
2018-06-20T12:08:29.614Z,25.61
2018-06-20T12:11:40.059Z,25.87
2018-06-20T12:14:49.805Z,26.00
2018-06-20T12:17:59.371Z,25.93
2018-06-20T12:21:08.803Z,26.03
2018-06-20T12:24:18.633Z,25.88
2018-06-20T12:27:28.188Z,25.99
2018-06-20T12:30:37.984Z,26.20
2018-06-20T12:33:47.609Z,26.17
2018-06-20T12:36:57.301Z,26.29
2018-06-20T12:40:09.682Z,26.11
2018-06-20T12:43:19.246Z,25.99
2018-06-20T12:46:32.773Z,25.79
2018-06-20T12:49:40.876Z,25.86
2018-06-20T12:52:45.345Z,26.25
2018-06-20T12:55:50.234Z,26.15
2018-06-20T12:58:54.543Z,26.32
2018-06-20T13:01:58.857Z,26.45
2018-06-20T13:05:03.208Z,26.41
2018-06-20T13:08:07.525Z,26.53
2018-06-20T13:11:12.029Z,26.49
2018-06-20T13:14:17.050Z,26.44
2018-06-20T13:17:21.589Z,26.67
2018-06-20T13:20:26.475Z,26.69
2018-06-20T13:23:31.644Z,26.83
2018-06-20T13:26:35.899Z,26.71
2018-06-20T13:29:40.969Z,26.76
2018-06-20T13:32:50.478Z,26.66
2018-06-20T13:36:00.254Z,26.41
2018-06-20T13:39:13.435Z,26.53
2018-06-20T13:42:22.951Z,26.67
2018-06-20T13:45:32.860Z,26.74
2018-06-20T13:48:38.100Z,26.32
2018-06-20T13:51:43.197Z,26.63
2018-06-20T13:54:47.565Z,26.76
2018-06-20T13:57:52.249Z,26.80
2018-06-20T14:00:56.738Z,26.67
2018-06-20T14:04:01.074Z,26.42
2018-06-20T14:07:06.461Z,26.62
2018-06-20T14:10:11.119Z,26.72
2018-06-20T14:13:15.524Z,26.56
2018-06-20T14:16:19.955Z,26.73
2018-06-20T14:19:29.489Z,26.69
2018-06-20T14:22:33.898Z,26.78
2018-06-20T14:25:38.351Z,26.90
2018-06-20T14:28:42.907Z,26.84
2018-06-20T14:31:52.272Z,26.82
2018-06-20T14:35:01.979Z,26.77
2018-06-20T14:38:11.664Z,26.58
2018-06-20T14:41:20.350Z,26.69
2018-06-20T14:44:24.682Z,26.74
2018-06-20T14:47:29.558Z,26.77
2018-06-20T14:50:34.204Z,26.69
2018-06-20T14:53:39.380Z,26.76
2018-06-20T14:56:43.934Z,26.69
2018-06-20T14:59:48.677Z,26.67
2018-06-20T15:02:53.890Z,26.69
2018-06-20T15:05:58.861Z,26.72
2018-06-20T15:09:03.644Z,26.79
2018-06-20T15:12:07.831Z,26.87
2018-06-20T15:15:12.710Z,26.88
2018-06-20T15:18:17.352Z,26.90
2018-06-20T15:21:21.674Z,26.69
2018-06-20T15:24:26.247Z,26.71
2018-06-20T15:27:35.765Z,26.73
2018-06-20T15:30:45.221Z,26.68
2018-06-20T15:33:54.828Z,26.67
2018-06-20T15:37:04.380Z,26.76
2018-06-20T15:40:08.770Z,26.74
2018-06-20T15:43:13.397Z,26.60
2018-06-20T15:46:17.763Z,26.56
2018-06-20T15:49:23.098Z,26.53
2018-06-20T15:52:27.577Z,26.55
2018-06-20T15:55:32.406Z,26.52
2018-06-20T15:58:36.892Z,26.57
2018-06-20T16:01:41.353Z,26.63
2018-06-20T16:04:46.870Z,26.34
2018-06-20T16:07:52.412Z,26.44
2018-06-20T16:10:56.977Z,26.47
2018-06-20T16:14:01.266Z,26.58
2018-06-20T16:17:05.931Z,26.51
2018-06-20T16:20:15.521Z,26.42
2018-06-20T16:23:26.536Z,26.36
2018-06-20T16:26:36.834Z,26.36
2018-06-20T16:29:46.517Z,26.39
2018-06-20T16:32:51.822Z,26.41
2018-06-20T16:35:56.317Z,26.29
2018-06-20T16:39:00.757Z,26.45
2018-06-20T16:42:05.157Z,26.37
2018-06-20T16:45:09.611Z,26.61
2018-06-20T16:48:14.022Z,27.39
2018-06-20T16:51:19.338Z,27.97
2018-06-20T16:54:23.734Z,28.75
2018-06-20T16:57:28.944Z,29.47
2018-06-20T17:00:33.422Z,29.03
2018-06-20T17:03:37.940Z,28.12
2018-06-20T17:06:42.238Z,27.41
2018-06-20T17:09:47.286Z,27.29
2018-06-20T17:12:57.228Z,27.48
2018-06-20T17:16:06.833Z,26.70
2018-06-20T17:19:17.738Z,26.19
2018-06-20T17:22:27.409Z,25.90
2018-06-20T17:25:33.952Z,25.92
2018-06-20T17:28:38.374Z,25.76
2018-06-20T17:31:43.517Z,25.70
2018-06-20T17:34:48.134Z,25.68
2018-06-20T17:37:52.541Z,25.45
2018-06-20T17:40:56.918Z,25.29
2018-06-20T17:44:01.524Z,25.28
2018-06-20T17:47:05.902Z,25.13
2018-06-20T17:50:12.061Z,25.05
2018-06-20T17:53:16.569Z,24.99
2018-06-20T17:56:20.963Z,24.90
2018-06-20T17:59:25.418Z,24.86
2018-06-20T18:02:29.985Z,24.77
2018-06-20T18:05:39.691Z,24.69
2018-06-20T18:08:49.302Z,24.56
2018-06-20T18:11:58.822Z,24.50
2018-06-20T18:15:08.923Z,24.46
2018-06-20T18:18:13.489Z,24.39
2018-06-20T18:21:17.982Z,24.27
2018-06-20T18:24:22.406Z,24.12
2018-06-20T18:27:26.757Z,23.99
2018-06-20T18:30:31.182Z,23.90
2018-06-20T18:33:36.702Z,23.84
2018-06-20T18:36:41.017Z,23.74
2018-06-20T18:39:50.425Z,23.56
2018-06-20T18:42:54.815Z,23.52
2018-06-20T18:45:59.108Z,23.42
2018-06-20T18:49:03.377Z,23.35
2018-06-20T18:52:07.724Z,23.31
2018-06-20T18:55:12.118Z,23.27
2018-06-20T18:58:21.565Z,23.16
2018-06-20T19:01:32.363Z,23.08
2018-06-20T19:04:41.846Z,22.94
2018-06-20T19:07:52.411Z,22.81
2018-06-20T19:10:56.749Z,22.67
2018-06-20T19:14:02.411Z,22.53
2018-06-20T19:17:06.801Z,22.39
2018-06-20T19:20:11.173Z,22.28
2018-06-20T19:23:15.622Z,22.19
2018-06-20T19:26:21.232Z,22.05
2018-06-20T19:29:25.604Z,21.95
2018-06-20T19:32:30.171Z,21.84
2018-06-20T19:35:34.605Z,21.75
2018-06-20T19:38:39.391Z,21.62
2018-06-20T19:41:43.752Z,21.54
2018-06-20T19:44:48.366Z,21.47
2018-06-20T19:47:52.702Z,21.40
2018-06-20T19:50:57.037Z,21.30
2018-06-20T19:54:01.354Z,21.20
2018-06-20T19:57:05.755Z,21.13
2018-06-20T20:00:10.102Z,21.01
2018-06-20T20:03:15.703Z,20.92
2018-06-20T20:06:20.217Z,20.82
2018-06-20T20:09:24.745Z,20.75
2018-06-20T20:12:29.769Z,20.63
2018-06-20T20:15:34.141Z,20.57
2018-06-20T20:18:38.811Z,20.48
2018-06-20T20:21:43.287Z,20.37
2018-06-20T20:24:47.696Z,20.31
2018-06-20T20:27:52.083Z,20.22
2018-06-20T20:30:56.464Z,20.15
2018-06-20T20:34:00.739Z,20.06
2018-06-20T20:37:05.258Z,20.02
2018-06-20T20:40:09.648Z,19.94
2018-06-20T20:43:14.109Z,19.89
2018-06-20T20:46:18.658Z,19.82
2018-06-20T20:49:23.060Z,19.77
2018-06-20T20:52:27.503Z,19.71
2018-06-20T20:55:31.862Z,19.66
2018-06-20T20:58:36.317Z,19.69
2018-06-20T21:01:43.057Z,19.59
2018-06-20T21:04:47.453Z,19.46
2018-06-20T21:07:51.918Z,19.43
2018-06-20T21:10:56.779Z,19.36
2018-06-20T21:14:01.990Z,19.36
2018-06-20T21:17:06.310Z,19.23
2018-06-20T21:20:10.673Z,19.26
2018-06-20T21:23:15.158Z,19.15
2018-06-20T21:26:19.448Z,19.07
2018-06-20T21:29:23.793Z,19.02
2018-06-20T21:32:28.199Z,18.96
2018-06-20T21:35:32.611Z,18.85
2018-06-20T21:38:36.926Z,18.77
2018-06-20T21:41:41.682Z,18.71
2018-06-20T21:44:45.979Z,18.76
2018-06-20T21:47:51.135Z,18.67
2018-06-20T21:50:55.586Z,18.62
2018-06-20T21:53:59.914Z,18.57
2018-06-20T21:57:04.816Z,18.47
2018-06-20T22:00:11.430Z,18.40
2018-06-20T22:03:15.766Z,18.36
2018-06-20T22:06:20.114Z,18.35
2018-06-20T22:09:24.481Z,18.31
2018-06-20T22:12:28.925Z,18.16
2018-06-20T22:15:33.392Z,18.17
2018-06-20T22:18:37.668Z,18.15
2018-06-20T22:21:42.385Z,18.13
2018-06-20T22:24:46.750Z,18.08
2018-06-20T22:27:51.662Z,18.02
2018-06-20T22:30:56.125Z,18.01
2018-06-20T22:34:00.468Z,17.98
2018-06-20T22:37:04.653Z,17.89
2018-06-20T22:40:09.396Z,17.87
2018-06-20T22:43:13.815Z,17.88
2018-06-20T22:46:18.195Z,17.77
2018-06-20T22:49:22.517Z,17.72
2018-06-20T22:52:27.897Z,17.67
2018-06-20T22:55:32.757Z,17.62
2018-06-20T22:58:37.025Z,17.59
2018-06-20T23:01:41.380Z,17.53
2018-06-20T23:04:47.458Z,17.49
2018-06-20T23:07:52.586Z,17.46
2018-06-20T23:10:57.080Z,17.36
2018-06-20T23:14:01.346Z,17.39
2018-06-20T23:17:05.656Z,17.38
2018-06-20T23:20:09.937Z,17.36
2018-06-20T23:23:14.229Z,17.34
2018-06-20T23:26:19.185Z,17.30
2018-06-20T23:29:23.440Z,17.28
2018-06-20T23:32:27.828Z,17.20
2018-06-20T23:35:32.095Z,17.13
2018-06-20T23:38:36.357Z,17.12
2018-06-20T23:41:41.081Z,17.08
2018-06-20T23:44:45.373Z,17.10
2018-06-20T23:47:49.641Z,17.02
2018-06-20T23:50:53.962Z,16.98
2018-06-20T23:53:58.317Z,16.97
2018-06-20T23:57:02.857Z,16.85
